Time;durP1;ratioP1;P1;durP2;ratioP2;P2;SDS_P1;SDS_P2;PMS_P1;PMS_P2;Temp;Humidity;BMP_temperature;BMP_pressure;BME280_temperature;BME280_humidity;BME280_pressure;Samples;Min_cycle;Max_cycle;Signal;HPM_P1;HPM_P2
2021/12/06 00:01:40;;;;;;;58.22;34.35;;;1.40;99.90;;;;;;5096694;28;20451;-71
2021/12/06 00:04:39;;;;;;;63.80;36.25;;;1.40;99.90;;;;;;5078611;28;20030;-71
2021/12/06 00:07:09;;;;;;;62.67;33.00;;;1.40;99.90;;;;;;5093233;28;20036;-72
2021/12/06 00:09:35;;;;;;;58.78;32.45;;;1.40;99.90;;;;;;5110567;28;20024;-70
2021/12/06 06:01:56;;;;;;;128.90;61.95;;;2.20;99.90;;;;;;5073412;28;20044;-71
2021/12/06 06:04:22;;;;;;;128.65;61.47;;;2.10;99.90;;;;;;5084802;28;20032;-71
2021/12/06 06:06:49;;;;;;;105.50;51.42;;;2.20;99.90;;;;;;5081161;28;20060;-70
2021/12/06 06:09:16;;;;;;;149.30;76.40;;;2.20;99.90;;;;;;5074025;28;20119;-70
2021/12/06 06:11:42;;;;;;;154.35;78.95;;;2.20;99.90;;;;;;5094384;28;20065;-70
2021/12/06 06:14:08;;;;;;;128.68;63.38;;;2.20;99.90;;;;;;5071481;28;20541;-69
2021/12/06 06:16:46;;;;;;;142.55;66.28;;;2.30;99.90;;;;;;5101526;28;20028;-71
2021/12/06 06:19:11;;;;;;;126.40;62.17;;;2.30;99.90;;;;;;5091474;28;20042;-69
2021/12/06 06:21:37;;;;;;;158.73;76.55;;;2.30;99.90;;;;;;5076286;28;20024;-69
2021/12/06 06:24:03;;;;;;;120.28;58.40;;;2.30;99.90;;;;;;5086512;28;20127;-71
2021/12/06 06:26:29;;;;;;;115.30;57.13;;;2.30;99.90;;;;;;5086110;28;20031;-71
2021/12/06 06:28:55;;;;;;;142.48;67.93;;;2.30;99.90;;;;;;5081022;28;20395;-70
2021/12/06 06:31:20;;;;;;;183.15;93.45;;;2.30;99.90;;;;;;5090768;28;20024;-70
2021/12/06 06:33:46;;;;;;;187.50;98.85;;;2.40;99.90;;;;;;5090447;28;20027;-70
2021/12/06 06:36:12;;;;;;;108.30;61.33;;;2.40;99.90;;;;;;5069378;28;20467;-71
2021/12/06 06:38:38;;;;;;;143.57;76.38;;;2.40;99.90;;;;;;5065648;28;20062;-75
2021/12/06 06:41:04;;;;;;;154.88;84.45;;;2.40;99.90;;;;;;5084852;28;20028;-74
2021/12/06 06:43:30;;;;;;;177.30;94.75;;;2.40;99.90;;;;;;5088116;28;20093;-75
2021/12/06 06:45:55;;;;;;;192.18;93.00;;;2.40;99.90;;;;;;5086985;28;20070;-77
2021/12/06 06:48:21;;;;;;;190.18;100.50;;;2.40;99.90;;;;;;5068360;28;20039;-74
2021/12/06 06:50:47;;;;;;;168.07;89.15;;;2.50;99.90;;;;;;5067614;28;20025;-73
2021/12/06 06:53:13;;;;;;;127.07;64.47;;;2.50;99.90;;;;;;5086408;28;20390;-71
2021/12/06 06:55:38;;;;;;;145.45;71.75;;;2.50;99.90;;;;;;5086828;28;20066;-74
2021/12/06 06:58:04;;;;;;;116.72;60.58;;;2.50;99.90;;;;;;5087908;28;20032;-72
2021/12/06 07:00:34;;;;;;;144.63;72.93;;;2.60;99.90;;;;;;5087655;28;20020;-73
2021/12/06 07:03:02;;;;;;;140.38;73.47;;;2.60;99.90;;;;;;5091764;28;20044;-74
2021/12/06 07:05:28;;;;;;;115.15;59.10;;;2.60;99.90;;;;;;5090811;28;20036;-72
2021/12/06 07:07:55;;;;;;;111.10;59.42;;;2.60;99.90;;;;;;5094509;28;20501;-73
2021/12/06 07:10:23;;;;;;;135.45;79.18;;;2.60;99.90;;;;;;5083056;28;20040;-73
2021/12/06 07:12:52;;;;;;;147.52;82.80;;;2.70;99.90;;;;;;5093638;28;20373;-73
2021/12/06 07:15:24;;;;;;;216.95;106.95;;;2.70;99.90;;;;;;5075007;28;20032;-74
2021/12/06 07:17:51;;;;;;;251.40;118.78;;;2.70;99.90;;;;;;5093838;28;20032;-73
2021/12/06 07:20:17;;;;;;;182.82;95.88;;;2.70;99.90;;;;;;5093614;28;20323;-73
2021/12/06 07:22:44;;;;;;;193.43;108.68;;;2.70;99.90;;;;;;5093231;28;20119;-73
2021/12/06 07:25:11;;;;;;;169.15;93.80;;;2.80;99.90;;;;;;5075462;28;20449;-73
2021/12/06 07:27:37;;;;;;;153.82;82.68;;;2.70;99.90;;;;;;5075280;28;20027;-73
2021/12/06 07:30:04;;;;;;;127.93;75.93;;;2.80;99.90;;;;;;5075122;28;20450;-72
2021/12/06 07:32:30;;;;;;;140.82;83.38;;;2.80;99.90;;;;;;5074987;28;20044;-73
2021/12/06 07:34:55;;;;;;;149.88;85.75;;;2.80;99.90;;;;;;5093449;28;20056;-74
2021/12/06 07:37:21;;;;;;;138.27;82.25;;;2.80;99.90;;;;;;5093313;28;20024;-74
2021/12/06 07:39:47;;;;;;;122.13;70.90;;;2.90;99.90;;;;;;5093723;28;20070;-74
2021/12/06 07:42:13;;;;;;;145.25;79.53;;;2.90;99.90;;;;;;5074970;28;20020;-72
2021/12/06 07:44:40;;;;;;;190.65;99.65;;;2.90;99.90;;;;;;5093159;28;20024;-73
2021/12/06 07:47:07;;;;;;;148.05;77.85;;;2.90;99.90;;;;;;5092880;28;20085;-73
2021/12/06 07:49:33;;;;;;;115.43;61.25;;;2.90;99.90;;;;;;5091654;28;20039;-72
2021/12/06 07:51:59;;;;;;;136.48;77.93;;;3.00;99.90;;;;;;5096349;28;20378;-74
2021/12/06 07:54:25;;;;;;;173.50;95.65;;;3.00;99.90;;;;;;5096738;28;20035;-74
2021/12/06 07:56:51;;;;;;;139.20;76.93;;;3.00;99.90;;;;;;5080692;28;20032;-73
2021/12/06 07:59:16;;;;;;;95.95;52.45;;;3.00;99.90;;;;;;5089500;28;20048;-73
2021/12/06 08:01:42;;;;;;;105.80;55.53;;;3.00;99.90;;;;;;5084284;28;20132;-74
2021/12/06 08:04:08;;;;;;;121.60;66.63;;;3.00;99.90;;;;;;5079300;28;20077;-74
2021/12/06 08:06:35;;;;;;;100.43;53.50;;;3.00;99.90;;;;;;5096839;28;20378;-73
2021/12/06 08:09:00;;;;;;;83.75;47.10;;;3.10;99.90;;;;;;5078325;28;20027;-74
2021/12/06 08:11:26;;;;;;;74.57;41.10;;;3.10;99.90;;;;;;5096802;28;20028;-74
2021/12/06 08:13:56;;;;;;;99.28;51.70;;;3.10;99.90;;;;;;5096457;28;20081;-73
2021/12/06 08:16:33;;;;;;;101.75;51.97;;;3.10;99.90;;;;;;5096322;28;20039;-73
2021/12/06 08:18:59;;;;;;;108.00;59.42;;;3.10;99.90;;;;;;5097173;28;20052;-74
2021/12/06 08:21:26;;;;;;;89.95;50.28;;;3.10;99.90;;;;;;5096317;28;20043;-74
2021/12/06 08:23:55;;;;;;;125.22;67.63;;;3.20;99.90;;;;;;5078026;28;20556;-73
2021/12/06 08:26:23;;;;;;;145.05;73.30;;;3.20;99.90;;;;;;5095909;28;20028;-73
2021/12/06 08:28:50;;;;;;;142.35;70.07;;;3.20;99.90;;;;;;5078111;28;20032;-74
2021/12/06 08:31:18;;;;;;;150.13;78.57;;;3.20;99.90;;;;;;5096159;28;20110;-73
2021/12/06 08:33:46;;;;;;;92.15;51.22;;;3.20;99.90;;;;;;5096069;28;20047;-73
2021/12/06 08:36:12;;;;;;;89.55;53.25;;;3.20;99.90;;;;;;5095980;28;20031;-73
2021/12/06 08:38:39;;;;;;;63.33;37.95;;;3.30;99.90;;;;;;5096020;28;20055;-72
2021/12/06 08:41:10;;;;;;;80.40;46.38;;;3.30;99.90;;;;;;5095892;28;20028;-74
2021/12/06 08:43:38;;;;;;;64.57;34.58;;;3.30;99.90;;;;;;5078047;28;20028;-73
2021/12/06 08:46:21;;;;;;;67.72;37.30;;;3.30;99.90;;;;;;5095920;28;20027;-73
2021/12/06 08:48:48;;;;;;;70.65;39.28;;;3.30;99.90;;;;;;5078221;28;20028;-74
2021/12/06 08:51:19;;;;;;;64.65;35.67;;;3.30;99.90;;;;;;5086019;28;20066;-74
2021/12/06 08:53:47;;;;;;;61.95;32.30;;;3.30;99.90;;;;;;5106113;28;20111;-72
2021/12/06 08:56:14;;;;;;;65.13;36.58;;;3.30;99.90;;;;;;5082850;28;20024;-73
2021/12/06 08:58:43;;;;;;;68.68;37.60;;;3.40;99.90;;;;;;5078262;28;20057;-73
2021/12/06 09:01:09;;;;;;;87.45;44.20;;;3.40;99.90;;;;;;5077765;28;20075;-74
2021/12/06 09:03:36;;;;;;;115.47;57.85;;;3.50;99.90;;;;;;5095167;28;20028;-72
2021/12/06 09:06:05;;;;;;;113.35;61.20;;;3.50;99.90;;;;;;5077044;28;20028;-73
2021/12/06 09:08:31;;;;;;;157.07;89.47;;;3.50;99.90;;;;;;5077353;28;20489;-73
2021/12/06 09:10:58;;;;;;;168.02;84.00;;;3.60;99.90;;;;;;5095542;28;20404;-72
2021/12/06 09:13:26;;;;;;;163.80;82.40;;;3.60;99.90;;;;;;5095850;28;20530;-72
2021/12/06 09:15:53;;;;;;;155.85;86.53;;;3.70;99.90;;;;;;5077675;28;20486;-74
2021/12/06 09:18:21;;;;;;;134.98;70.57;;;3.70;99.90;;;;;;5095768;28;20028;-73
2021/12/06 09:20:49;;;;;;;128.75;69.72;;;3.70;99.90;;;;;;5076811;28;20462;-73
2021/12/06 09:23:15;;;;;;;110.03;60.60;;;3.70;99.90;;;;;;5077227;28;20032;-72
2021/12/06 09:25:43;;;;;;;71.35;41.40;;;3.70;99.90;;;;;;5076907;28;20067;-74
2021/12/06 09:28:11;;;;;;;100.38;55.85;;;3.70;99.90;;;;;;5077164;28;20485;-73
2021/12/06 09:30:37;;;;;;;113.82;62.63;;;3.70;99.90;;;;;;5094883;28;20028;-73
2021/12/06 09:33:07;;;;;;;170.90;90.13;;;3.70;99.90;;;;;;5076923;28;20119;-73
2021/12/06 09:35:36;;;;;;;133.77;67.82;;;3.70;99.90;;;;;;5077023;28;20040;-73
2021/12/06 09:38:04;;;;;;;195.05;93.60;;;3.70;99.90;;;;;;5077027;28;20477;-73
2021/12/06 09:40:31;;;;;;;200.05;93.18;;;3.70;99.90;;;;;;5076687;28;20158;-73
2021/12/06 09:42:58;;;;;;;293.45;136.15;;;3.70;99.90;;;;;;5096040;28;20031;-72
2021/12/06 09:45:28;;;;;;;127.82;65.38;;;3.70;99.90;;;;;;5086430;28;20036;-73
2021/12/06 09:48:00;;;;;;;202.63;100.25;;;3.70;99.90;;;;;;5090411;28;20032;-72
2021/12/06 09:50:33;;;;;;;140.38;75.03;;;3.70;99.90;;;;;;5077494;28;20028;-76
2021/12/06 09:53:03;;;;;;;136.05;64.82;;;3.70;99.90;;;;;;5076707;28;20028;-72
2021/12/06 09:55:29;;;;;;;106.82;57.25;;;3.70;99.90;;;;;;5094641;28;20075;-72
2021/12/06 09:57:56;;;;;;;78.13;47.30;;;3.70;99.90;;;;;;5076309;28;20470;-72
2021/12/06 10:00:25;;;;;;;48.15;30.05;;;3.80;99.90;;;;;;5094456;28;20081;-72
2021/12/06 10:02:52;;;;;;;62.30;35.90;;;3.80;99.90;;;;;;5075930;28;20397;-72
2021/12/06 10:05:18;;;;;;;79.63;41.17;;;3.80;99.90;;;;;;5076008;28;20031;-72
2021/12/06 10:07:44;;;;;;;68.95;39.92;;;3.80;99.90;;;;;;5076342;28;20032;-73
2021/12/06 10:10:12;;;;;;;57.10;34.53;;;3.80;99.90;;;;;;5076362;28;20024;-72
2021/12/06 10:12:38;;;;;;;60.30;35.25;;;3.80;99.90;;;;;;5094248;28;20060;-72
2021/12/06 10:15:05;;;;;;;65.05;38.30;;;3.80;99.90;;;;;;5075931;28;20452;-72
2021/12/06 10:17:34;;;;;;;54.08;35.45;;;3.80;99.90;;;;;;5094035;28;20024;-72
2021/12/06 10:20:00;;;;;;;62.05;40.85;;;3.80;99.90;;;;;;5076197;28;20355;-73
2021/12/06 10:22:27;;;;;;;61.78;39.92;;;3.80;99.90;;;;;;5075880;28;20051;-72
2021/12/06 10:24:56;;;;;;;65.05;42.08;;;3.80;99.90;;;;;;5075717;28;20032;-73
2021/12/06 10:27:22;;;;;;;64.95;38.42;;;3.80;99.90;;;;;;5075751;28;20165;-72
2021/12/06 10:29:59;;;;;;;52.47;32.90;;;3.90;99.90;;;;;;5076691;28;20085;-73
2021/12/06 10:32:30;;;;;;;79.28;40.22;;;3.90;99.90;;;;;;5093154;28;20048;-73
2021/12/06 10:35:04;;;;;;;89.05;43.55;;;3.80;99.90;;;;;;5094335;28;20070;-73
2021/12/06 10:37:45;;;;;;;142.23;62.55;;;3.80;99.90;;;;;;5080177;28;20028;-72
2021/12/06 10:40:13;;;;;;;119.53;51.25;;;3.80;99.90;;;;;;5104862;28;20088;-73
2021/12/06 10:42:42;;;;;;;124.43;53.13;;;3.90;99.90;;;;;;5080614;28;20030;-73
2021/12/06 10:45:11;;;;;;;103.20;46.63;;;3.80;99.90;;;;;;5094326;28;20027;-75
2021/12/06 10:47:37;;;;;;;186.40;75.32;;;3.80;99.90;;;;;;5094156;28;20103;-73
2021/12/06 10:50:13;;;;;;;233.32;85.13;;;3.80;99.90;;;;;;5093872;28;20085;-73
2021/12/06 10:52:55;;;;;;;159.63;64.70;;;3.70;99.90;;;;;;5075916;28;20086;-75
2021/12/06 10:55:24;;;;;;;112.05;52.30;;;3.80;99.90;;;;;;5093765;28;20094;-72
2021/12/06 10:57:58;;;;;;;154.00;78.78;;;3.70;99.90;;;;;;5075282;28;20031;-72
2021/12/06 11:00:50;;;;;;;34.55;23.15;;;3.70;99.90;;;;;;5093995;28;20036;-72
2021/12/06 11:03:34;;;;;;;42.85;28.42;;;3.70;99.90;;;;;;5076113;28;20381;-74
2021/12/06 11:06:10;;;;;;;32.65;21.02;;;3.70;99.90;;;;;;5093639;28;20043;-73
2021/12/06 11:08:38;;;;;;;30.67;20.23;;;3.70;99.90;;;;;;5092352;28;20024;-73
2021/12/06 11:11:08;;;;;;;34.53;23.00;;;3.80;99.90;;;;;;5093570;28;20036;-73
2021/12/06 11:13:38;;;;;;;30.42;20.85;;;3.80;99.90;;;;;;5093427;28;20020;-73
2021/12/06 11:16:18;;;;;;;36.95;23.50;;;3.80;99.90;;;;;;5093380;28;20438;-73
2021/12/06 11:18:47;;;;;;;59.30;40.47;;;3.80;99.90;;;;;;5075359;28;20032;-73
2021/12/06 11:21:34;;;;;;;48.45;33.15;;;3.80;99.90;;;;;;5093417;28;20025;-73
2021/12/06 11:24:09;;;;;;;56.92;40.28;;;3.80;99.90;;;;;;5075777;28;20034;-72
2021/12/06 11:26:44;;;;;;;48.72;35.53;;;3.80;99.90;;;;;;5078246;28;20155;-72
2021/12/06 11:29:19;;;;;;;44.17;30.73;;;3.80;99.90;;;;;;5079350;28;20028;-72
2021/12/06 11:31:58;;;;;;;40.83;30.75;;;3.80;99.90;;;;;;5090191;28;20031;-71
2021/12/06 11:34:34;;;;;;;29.17;18.63;;;3.80;99.90;;;;;;5109758;28;20077;-71
2021/12/06 11:37:01;;;;;;;27.95;19.40;;;3.80;99.90;;;;;;5082576;28;20024;-72
2021/12/06 11:39:27;;;;;;;25.45;15.70;;;3.80;99.90;;;;;;5079623;28;20028;-73
2021/12/06 11:41:57;;;;;;;23.25;15.10;;;3.80;99.90;;;;;;5080829;28;20535;-72
2021/12/06 11:44:26;;;;;;;46.30;28.30;;;3.80;99.90;;;;;;5097020;28;20099;-72
2021/12/06 11:46:59;;;;;;;54.22;32.60;;;3.80;99.90;;;;;;5078766;28;20117;-72
2021/12/06 11:49:33;;;;;;;45.90;27.95;;;3.90;99.90;;;;;;5078850;28;20024;-73
2021/12/06 11:51:59;;;;;;;34.42;20.90;;;3.90;99.90;;;;;;5097001;28;20036;-73
2021/12/06 11:54:25;;;;;;;33.72;21.52;;;3.90;99.90;;;;;;5097083;28;20114;-71
2021/12/06 11:56:52;;;;;;;34.78;23.08;;;3.90;99.90;;;;;;5078776;28;20137;-72
2021/12/06 11:59:20;;;;;;;23.73;14.23;;;3.90;99.90;;;;;;5096846;28;20048;-72
2021/12/06 12:01:53;;;;;;;23.42;15.40;;;3.90;99.90;;;;;;5096578;28;20387;-72
2021/12/06 12:04:25;;;;;;;17.08;11.25;;;3.90;99.90;;;;;;5078872;28;20024;-72
2021/12/06 12:07:03;;;;;;;20.80;14.43;;;3.90;99.90;;;;;;5078239;28;20450;-73
2021/12/06 12:09:32;;;;;;;18.83;12.65;;;3.90;99.90;;;;;;5078479;28;20119;-73
2021/12/06 12:12:08;;;;;;;21.73;13.90;;;3.90;99.90;;;;;;5096333;28;20107;-73
2021/12/06 12:14:49;;;;;;;24.33;14.65;;;3.90;99.90;;;;;;5095262;28;20032;-74
2021/12/06 12:17:18;;;;;;;24.85;14.88;;;3.90;99.90;;;;;;5078373;28;20028;-73
2021/12/06 12:19:46;;;;;;;23.48;15.02;;;3.90;99.90;;;;;;5096441;28;20111;-73
2021/12/06 12:22:14;;;;;;;27.73;17.88;;;3.90;99.90;;;;;;5096012;28;20480;-72
2021/12/06 12:24:43;;;;;;;26.55;16.83;;;3.90;99.90;;;;;;5098612;28;20036;-74
2021/12/06 12:27:25;;;;;;;35.47;22.95;;;3.90;99.90;;;;;;5093467;28;20061;-72
2021/12/06 12:29:54;;;;;;;32.65;21.73;;;3.90;99.90;;;;;;5103968;28;20017;-73
2021/12/06 12:32:20;;;;;;;25.80;16.15;;;3.90;99.90;;;;;;5096739;28;20020;-73
2021/12/06 12:34:50;;;;;;;32.40;22.90;;;3.90;99.90;;;;;;5096120;28;20016;-73
2021/12/06 12:37:18;;;;;;;29.92;18.98;;;3.90;99.90;;;;;;5094835;28;20177;-73
2021/12/06 12:40:18;;;;;;;30.10;17.15;;;3.90;99.90;;;;;;5077716;28;20024;-73
2021/12/06 12:43:15;;;;;;;30.00;17.08;;;3.90;99.90;;;;;;5073103;28;20051;-73
2021/12/06 12:45:44;;;;;;;30.85;17.42;;;3.90;99.90;;;;;;5086759;28;20089;-75
2021/12/06 12:48:11;;;;;;;33.38;20.45;;;3.90;99.90;;;;;;5095940;28;20034;-74
2021/12/06 12:50:37;;;;;;;52.30;32.35;;;3.90;99.90;;;;;;5095811;28;20481;-74
2021/12/06 12:53:14;;;;;;;34.83;21.30;;;3.90;99.90;;;;;;5095940;28;20056;-73
2021/12/06 12:55:49;;;;;;;38.28;20.65;;;3.90;99.90;;;;;;5096071;28;20032;-72
2021/12/06 12:58:19;;;;;;;34.15;20.63;;;3.90;99.90;;;;;;5095701;28;20028;-72
2021/12/06 13:00:48;;;;;;;33.40;19.70;;;3.90;99.90;;;;;;5077334;28;20035;-72
2021/12/06 13:03:34;;;;;;;34.47;19.30;;;4.00;99.90;;;;;;5095774;28;20123;-73
2021/12/06 13:06:27;;;;;;;35.30;19.63;;;4.00;99.90;;;;;;5077628;28;20067;-73
2021/12/06 13:08:57;;;;;;;41.50;21.13;;;4.00;99.90;;;;;;5093983;28;20025;-72
2021/12/06 13:11:27;;;;;;;41.00;21.35;;;4.00;99.90;;;;;;5095779;28;20086;-74
2021/12/06 13:13:54;;;;;;;46.67;25.83;;;4.00;99.90;;;;;;5077660;28;20070;-74
2021/12/06 13:19:34;;;;;;;38.83;20.38;;;4.00;99.90;;;;;;5094135;28;20409;-73
2021/12/06 13:22:32;;;;;;;40.17;21.85;;;4.00;99.90;;;;;;5089179;28;20073;-74
2021/12/06 13:25:00;;;;;;;46.13;24.48;;;4.00;99.90;;;;;;5077677;28;20122;-74
2021/12/06 13:27:26;;;;;;;42.65;21.63;;;3.90;99.90;;;;;;5077140;28;20039;-75
2021/12/06 13:29:56;;;;;;;35.30;19.80;;;3.90;99.90;;;;;;5077208;28;20458;-72
2021/12/06 13:32:45;;;;;;;38.20;19.10;;;3.90;99.90;;;;;;5076876;28;20462;-72
2021/12/06 13:35:32;;;;;;;42.50;21.92;;;3.90;99.90;;;;;;5076578;28;20489;-72
2021/12/06 13:38:18;;;;;;;42.08;19.13;;;3.90;99.90;;;;;;5077185;28;20045;-73
2021/12/06 13:41:04;;;;;;;53.53;25.92;;;3.90;99.90;;;;;;5076405;28;20143;-73
2021/12/06 13:43:38;;;;;;;86.40;36.60;;;3.90;99.90;;;;;;5076675;28;20036;-74
2021/12/06 13:46:28;;;;;;;58.45;26.55;;;3.90;99.90;;;;;;5076503;28;20066;-74
2021/12/06 13:49:13;;;;;;;77.93;39.58;;;3.90;99.90;;;;;;5075337;28;20047;-74
2021/12/06 13:51:53;;;;;;;67.07;34.63;;;3.90;99.90;;;;;;5076518;28;20089;-72
2021/12/06 13:54:30;;;;;;;63.67;29.67;;;3.90;99.90;;;;;;5076789;28;20462;-73
2021/12/06 13:57:02;;;;;;;61.53;29.25;;;3.90;99.90;;;;;;5094983;28;20422;-73
2021/12/06 13:59:40;;;;;;;54.42;25.65;;;3.90;99.90;;;;;;5095955;28;20024;-72
2021/12/06 14:02:15;;;;;;;59.70;30.85;;;3.90;99.90;;;;;;5076369;28;20398;-72
2021/12/06 14:04:46;;;;;;;73.72;40.05;;;3.90;99.90;;;;;;5093634;28;20466;-76
2021/12/06 14:07:13;;;;;;;81.40;43.47;;;4.00;99.90;;;;;;5076188;28;20051;-72
2021/12/06 14:09:41;;;;;;;55.72;27.13;;;4.00;99.90;;;;;;5076720;28;20024;-73
2021/12/06 14:12:22;;;;;;;54.90;29.10;;;4.00;99.90;;;;;;5078865;28;20028;-72
2021/12/06 14:14:53;;;;;;;52.67;27.90;;;4.00;99.90;;;;;;5085972;28;20088;-73
2021/12/06 14:17:20;;;;;;;58.13;28.98;;;4.00;99.90;;;;;;5083605;28;20070;-72
2021/12/06 14:19:48;;;;;;;50.33;26.15;;;4.00;99.90;;;;;;5096364;28;20024;-73
2021/12/06 14:22:21;;;;;;;47.60;24.15;;;4.10;99.90;;;;;;5077441;28;20043;-73
2021/12/06 14:24:47;;;;;;;54.45;26.52;;;4.10;99.90;;;;;;5094172;28;20036;-73
2021/12/06 14:27:16;;;;;;;49.53;26.35;;;4.10;99.90;;;;;;5094016;28;20040;-71
2021/12/06 14:29:42;;;;;;;52.67;25.25;;;4.10;99.90;;;;;;5092917;28;20370;-73
2021/12/06 14:32:11;;;;;;;53.95;25.60;;;4.10;99.90;;;;;;5076204;28;20587;-72
2021/12/06 14:34:41;;;;;;;65.82;29.70;;;4.10;99.90;;;;;;5075681;28;20035;-72
2021/12/06 14:37:11;;;;;;;57.50;28.30;;;4.20;99.90;;;;;;5093812;28;20126;-72
2021/12/06 14:39:40;;;;;;;59.03;27.85;;;4.20;99.90;;;;;;5093564;28;20052;-72
2021/12/06 14:42:13;;;;;;;56.72;28.00;;;4.20;99.90;;;;;;5076539;28;20428;-72
2021/12/06 14:44:56;;;;;;;55.92;27.58;;;4.20;99.90;;;;;;5094145;28;20028;-71
2021/12/06 14:47:42;;;;;;;56.30;27.25;;;4.20;99.90;;;;;;5093601;28;20401;-72
2021/12/06 14:50:30;;;;;;;59.90;27.92;;;4.20;99.90;;;;;;5093929;28;20478;-72
2021/12/06 14:52:56;;;;;;;58.80;27.77;;;4.20;99.90;;;;;;5093577;28;20474;-71
2021/12/06 14:55:51;;;;;;;64.18;28.42;;;4.30;99.90;;;;;;5075836;28;20028;-72
2021/12/06 14:58:17;;;;;;;61.78;29.65;;;4.30;99.90;;;;;;5093000;28;20032;-72
2021/12/06 15:00:58;;;;;;;58.13;27.65;;;4.30;99.90;;;;;;5094774;28;20123;-71
2021/12/06 15:03:32;;;;;;;57.35;28.10;;;4.40;99.90;;;;;;5098031;28;20032;-72
2021/12/06 15:06:01;;;;;;;67.43;30.25;;;4.40;99.90;;;;;;5081465;28;20032;-72
2021/12/06 15:08:34;;;;;;;63.42;32.85;;;4.40;99.90;;;;;;5100415;28;20090;-72
2021/12/06 15:11:03;;;;;;;69.93;36.65;;;4.50;99.90;;;;;;5103120;28;20400;-72
2021/12/06 15:13:30;;;;;;;91.85;50.05;;;4.50;99.90;;;;;;5101794;28;20038;-71
2021/12/06 15:15:59;;;;;;;85.97;48.33;;;4.50;99.90;;;;;;5098479;28;20032;-72
2021/12/06 15:18:29;;;;;;;66.60;36.22;;;4.60;99.90;;;;;;5097677;28;20052;-72
2021/12/06 15:20:58;;;;;;;59.25;29.50;;;4.60;99.90;;;;;;5078991;28;20131;-72
2021/12/06 15:23:32;;;;;;;70.13;32.83;;;4.70;99.90;;;;;;5096144;28;20448;-73
2021/12/06 15:26:00;;;;;;;58.20;31.13;;;4.70;99.90;;;;;;5079496;28;20043;-72
2021/12/06 15:28:29;;;;;;;63.75;35.55;;;4.70;99.90;;;;;;5096518;28;20028;-72
2021/12/06 15:30:56;;;;;;;74.40;40.03;;;4.80;99.90;;;;;;5095780;28;20032;-72
2021/12/06 15:33:23;;;;;;;65.90;36.47;;;4.80;99.90;;;;;;5097251;28;20416;-73
2021/12/06 15:35:56;;;;;;;111.95;63.33;;;4.90;99.90;;;;;;5097072;28;20024;-73
2021/12/06 15:38:28;;;;;;;158.32;85.90;;;4.90;99.90;;;;;;5079438;28;20024;-73
2021/12/06 15:40:59;;;;;;;182.13;95.60;;;4.90;99.90;;;;;;5078973;28;20047;-73
2021/12/06 15:43:31;;;;;;;98.70;53.40;;;4.90;99.90;;;;;;5097308;28;20051;-73
2021/12/06 15:45:59;;;;;;;104.38;59.25;;;5.00;99.90;;;;;;5097048;28;20127;-73
2021/12/06 15:48:31;;;;;;;101.88;56.13;;;5.00;99.90;;;;;;5096775;28;20529;-73
2021/12/06 15:50:57;;;;;;;118.00;54.50;;;5.10;99.90;;;;;;5097015;28;20020;-73
2021/12/06 15:53:25;;;;;;;118.05;54.53;;;5.10;99.90;;;;;;5078586;28;20351;-72
2021/12/06 15:55:56;;;;;;;101.05;48.47;;;5.10;99.90;;;;;;5078538;28;20028;-72
2021/12/06 15:58:23;;;;;;;102.60;47.13;;;5.10;99.90;;;;;;5097177;28;20024;-72
2021/12/06 16:00:58;;;;;;;116.32;55.60;;;5.10;99.90;;;;;;5103718;28;20024;-72
2021/12/06 16:03:29;;;;;;;;;;;5.20;99.90;;;;;;5087444;28;20067;-72
2021/12/06 16:05:58;;;;;;;187.77;84.03;;;5.20;99.90;;;;;;5100067;28;19923;-73
2021/12/06 16:08:25;;;;;;;211.55;97.47;;;5.20;99.90;;;;;;5104259;28;20480;-73
2021/12/06 16:10:58;;;;;;;231.95;107.35;;;5.20;99.90;;;;;;5096877;28;20020;-72
2021/12/06 16:13:27;;;;;;;112.85;63.75;;;5.30;99.90;;;;;;5077888;28;20036;-74
2021/12/06 16:15:56;;;;;;;89.07;51.65;;;5.30;99.90;;;;;;5077992;28;20028;-73
2021/12/06 16:18:28;;;;;;;92.47;55.38;;;5.30;99.90;;;;;;5078391;28;20107;-74
2021/12/06 16:21:16;;;;;;;74.93;45.65;;;5.40;99.90;;;;;;5096536;28;20051;-72
2021/12/06 16:23:48;;;;;;;118.95;72.55;;;5.40;99.90;;;;;;5096549;28;20035;-71
2021/12/06 16:26:18;;;;;;;148.93;89.10;;;5.40;99.90;;;;;;5078089;28;20170;-73
2021/12/06 16:28:44;;;;;;;134.02;78.72;;;5.40;99.90;;;;;;5096065;28;20461;-72
2021/12/06 16:31:09;;;;;;;124.38;72.65;;;5.40;99.90;;;;;;5078079;28;20035;-73
2021/12/06 16:33:55;;;;;;;114.30;65.15;;;5.40;99.90;;;;;;5096243;28;20023;-72
2021/12/06 16:36:23;;;;;;;96.43;53.90;;;5.40;99.90;;;;;;5077721;28;20432;-73
2021/12/06 16:38:51;;;;;;;73.75;42.33;;;5.40;99.90;;;;;;5078001;28;20032;-73
2021/12/06 16:41:20;;;;;;;78.25;45.40;;;5.50;99.90;;;;;;5078265;28;20024;-72
2021/12/06 16:43:49;;;;;;;66.72;41.42;;;5.50;99.90;;;;;;5077834;28;20060;-73
2021/12/06 16:46:17;;;;;;;74.15;43.35;;;5.50;99.90;;;;;;5095798;28;20462;-73
2021/12/06 16:48:47;;;;;;;79.93;43.88;;;5.50;99.90;;;;;;5095754;28;20047;-73
2021/12/06 16:51:30;;;;;;;77.95;44.42;;;5.60;99.90;;;;;;5077815;28;20119;-73
2021/12/06 16:53:55;;;;;;;78.88;42.83;;;5.60;99.90;;;;;;5100889;28;20024;-73
2021/12/06 16:56:21;;;;;;;61.05;36.50;;;5.70;99.90;;;;;;5092677;28;20035;-73
2021/12/06 16:58:49;;;;;;;74.72;41.00;;;5.70;99.90;;;;;;5085008;28;20030;-73
2021/12/06 17:01:17;;;;;;;88.82;47.33;;;5.80;99.90;;;;;;5097752;28;20044;-73
2021/12/06 17:03:48;;;;;;;73.65;43.97;;;5.80;99.90;;;;;;5096010;28;20028;-73
2021/12/06 17:06:25;;;;;;;88.15;52.28;;;5.90;99.90;;;;;;5077473;28;20031;-74
2021/12/06 17:08:58;;;;;;;66.78;40.17;;;5.90;99.90;;;;;;5095372;28;20050;-74
2021/12/06 17:11:28;;;;;;;69.82;40.75;;;5.90;99.90;;;;;;5094139;28;20381;-74
2021/12/06 17:14:02;;;;;;;59.05;37.50;;;6.00;99.90;;;;;;5095605;28;20032;-73
2021/12/06 17:16:36;;;;;;;61.42;37.33;;;6.00;99.90;;;;;;5077430;28;20527;-74
2021/12/06 17:19:13;;;;;;;63.88;38.15;;;6.10;99.90;;;;;;5095433;28;20417;-74
2021/12/06 17:21:39;;;;;;;61.22;37.35;;;6.10;99.90;;;;;;5077263;28;20452;-74
2021/12/06 17:24:05;;;;;;;54.50;33.47;;;6.10;99.90;;;;;;5076041;28;20028;-73
2021/12/06 17:26:31;;;;;;;55.55;34.08;;;6.10;99.90;;;;;;5076835;28;20036;-75
2021/12/06 17:29:03;;;;;;;59.28;34.72;;;6.10;99.90;;;;;;5095167;28;20074;-74
2021/12/06 17:31:31;;;;;;;53.15;31.02;;;6.10;99.90;;;;;;5076961;28;20077;-73
2021/12/06 17:34:24;;;;;;;53.63;34.03;;;6.10;99.90;;;;;;5076804;28;20077;-73
2021/12/06 17:37:05;;;;;;;59.22;36.92;;;6.10;99.90;;;;;;5094855;28;20032;-73
2021/12/06 17:39:33;;;;;;;59.03;37.28;;;6.10;99.90;;;;;;5095055;28;20055;-73
2021/12/06 17:42:03;;;;;;;58.35;35.67;;;6.10;99.90;;;;;;5076894;28;20036;-72
2021/12/06 17:44:30;;;;;;;71.55;39.78;;;6.10;99.90;;;;;;5077009;28;20028;-73
2021/12/06 17:46:57;;;;;;;56.30;34.38;;;6.10;99.90;;;;;;5096054;28;20489;-73
2021/12/06 17:49:24;;;;;;;53.33;34.03;;;6.10;99.90;;;;;;5085680;28;20041;-73
2021/12/06 17:51:51;;;;;;;66.30;38.45;;;6.10;99.90;;;;;;5084501;28;20056;-72
2021/12/06 17:54:22;;;;;;;63.35;37.75;;;6.10;99.90;;;;;;5077722;28;20024;-71
2021/12/06 17:56:50;;;;;;;56.53;36.00;;;6.10;99.90;;;;;;5094676;28;20024;-72
2021/12/06 17:59:18;;;;;;;65.60;38.42;;;6.20;99.90;;;;;;5076285;28;20020;-71
2021/12/06 18:01:51;;;;;;;70.32;39.85;;;6.20;99.90;;;;;;5092866;28;20620;-72
2021/12/06 18:04:20;;;;;;;70.63;38.95;;;6.20;99.90;;;;;;5076327;28;20031;-73
2021/12/06 18:06:47;;;;;;;58.22;35.15;;;6.20;99.90;;;;;;5094568;28;20028;-72
2021/12/06 18:09:14;;;;;;;63.10;36.35;;;6.20;99.90;;;;;;5076445;28;20020;-73
2021/12/06 18:11:43;;;;;;;60.08;35.70;;;6.20;99.90;;;;;;5094236;28;20362;-72
2021/12/06 18:14:11;;;;;;;52.90;33.20;;;6.20;99.90;;;;;;5094292;28;20031;-72
2021/12/06 18:16:41;;;;;;;64.75;37.40;;;6.20;99.90;;;;;;5094600;28;20090;-72
2021/12/06 18:19:07;;;;;;;62.95;38.80;;;6.20;99.90;;;;;;5076430;28;20028;-71
2021/12/06 18:21:35;;;;;;;76.22;43.22;;;6.20;99.90;;;;;;5076325;28;20026;-72
2021/12/06 18:24:01;;;;;;;76.70;42.83;;;6.20;99.90;;;;;;5075711;28;20028;-72
2021/12/06 18:26:28;;;;;;;74.82;43.70;;;6.20;99.90;;;;;;5076204;28;20040;-72
2021/12/06 18:28:56;;;;;;;78.93;43.20;;;6.20;99.90;;;;;;5076145;28;20036;-71
2021/12/06 18:31:22;;;;;;;79.95;42.03;;;6.20;99.90;;;;;;5075914;28;20024;-72
2021/12/06 18:33:50;;;;;;;78.10;45.45;;;6.20;99.90;;;;;;5093807;28;20512;-72
2021/12/06 18:36:16;;;;;;;78.78;46.13;;;6.20;99.90;;;;;;5075790;28;20039;-71
2021/12/06 18:38:48;;;;;;;73.05;42.28;;;6.30;99.90;;;;;;5075980;28;20028;-73
2021/12/06 18:41:16;;;;;;;71.50;41.75;;;6.30;99.90;;;;;;5076238;28;20130;-71
2021/12/06 18:46:13;;;;;;;86.82;51.20;;;6.30;99.90;;;;;;5100238;28;20134;-72